sensor_id;sensor_type;location;lat;lon;timestamp;pressure;altitude;pressure_sealevel;temperature;humidity
39739;BME280;25422;48.286;8.484;2022-12-10T00:01:39;92708.50;;;-2.98;100.00
39739;BME280;25422;48.286;8.484;2022-12-10T00:04:05;92717.25;;;-3.00;100.00
39739;BME280;25422;48.286;8.484;2022-12-10T00:06:33;92719.13;;;-3.02;100.00
39739;BME280;25422;48.286;8.484;2022-12-10T00:09:00;92724.25;;;-3.02;100.00
39739;BME280;25422;48.286;8.484;2022-12-10T00:11:26;92733.97;;;-2.96;100.00
39739;BME280;25422;48.286;8.484;2022-12-10T00:13:52;92737.47;;;-2.97;100.00
39739;BME280;25422;48.286;8.484;2022-12-10T00:16:20;92732.78;;;-2.92;100.00
39739;BME280;25422;48.286;8.484;2022-12-10T00:18:46;92732.44;;;-2.88;100.00
39739;BME280;25422;48.286;8.484;2022-12-10T00:21:15;92733.03;;;-2.95;100.00
39739;BME280;25422;48.286;8.484;2022-12-10T00:23:41;92727.09;;;-2.96;100.00
39739;BME280;25422;48.286;8.484;2022-12-10T00:26:14;92729.09;;;-2.99;100.00
39739;BME280;25422;48.286;8.484;2022-12-10T00:28:41;92730.16;;;-3.02;100.00
39739;BME280;25422;48.286;8.484;2022-12-10T00:31:09;92730.16;;;-3.02;100.00
39739;BME280;25422;48.286;8.484;2022-12-10T00:33:36;92726.72;;;-2.91;100.00
39739;BME280;25422;48.286;8.484;2022-12-10T00:36:17;92715.78;;;-2.93;100.00
39739;BME280;25422;48.286;8.484;2022-12-10T00:38:44;92714.38;;;-2.86;100.00
39739;BME280;25422;48.286;8.484;2022-12-10T00:41:11;92717.44;;;-2.92;100.00
39739;BME280;25422;48.286;8.484;2022-12-10T00:43:38;92711.75;;;-2.96;100.00
39739;BME280;25422;48.286;8.484;2022-12-10T00:46:04;92717.81;;;-2.97;100.00
39739;BME280;25422;48.286;8.484;2022-12-10T00:48:29;92711.38;;;-2.91;100.00
39739;BME280;25422;48.286;8.484;2022-12-10T00:51:03;92718.94;;;-2.90;100.00
39739;BME280;25422;48.286;8.484;2022-12-10T00:53:30;92719.41;;;-2.96;100.00
39739;BME280;25422;48.286;8.484;2022-12-10T00:55:56;92721.19;;;-2.96;100.00
39739;BME280;25422;48.286;8.484;2022-12-10T00:58:23;92718.13;;;-2.90;100.00
39739;BME280;25422;48.286;8.484;2022-12-10T01:00:48;92718.44;;;-2.83;100.00
39739;BME280;25422;48.286;8.484;2022-12-10T01:03:15;92717.34;;;-2.81;100.00
39739;BME280;25422;48.286;8.484;2022-12-10T01:05:40;92719.81;;;-2.79;100.00
39739;BME280;25422;48.286;8.484;2022-12-10T01:08:06;92728.75;;;-2.74;100.00
39739;BME280;25422;48.286;8.484;2022-12-10T01:10:31;92730.28;;;-2.82;100.00
39739;BME280;25422;48.286;8.484;2022-12-10T01:12:57;92722.78;;;-2.74;100.00
39739;BME280;25422;48.286;8.484;2022-12-10T01:15:23;92720.88;;;-2.82;100.00
39739;BME280;25422;48.286;8.484;2022-12-10T01:17:48;92724.53;;;-2.75;100.00
39739;BME280;25422;48.286;8.484;2022-12-10T01:20:13;92731.22;;;-2.62;100.00
39739;BME280;25422;48.286;8.484;2022-12-10T01:22:39;92729.34;;;-2.60;100.00
39739;BME280;25422;48.286;8.484;2022-12-10T01:25:05;92731.78;;;-2.59;100.00
39739;BME280;25422;48.286;8.484;2022-12-10T01:27:30;92734.16;;;-2.67;100.00
39739;BME280;25422;48.286;8.484;2022-12-10T01:29:56;92727.03;;;-2.63;100.00
39739;BME280;25422;48.286;8.484;2022-12-10T01:32:21;92721.50;;;-2.68;100.00
39739;BME280;25422;48.286;8.484;2022-12-10T01:34:47;92726.44;;;-2.77;100.00
39739;BME280;25422;48.286;8.484;2022-12-10T01:37:12;92724.09;;;-2.80;100.00
39739;BME280;25422;48.286;8.484;2022-12-10T01:39:38;92737.84;;;-2.81;100.00
39739;BME280;25422;48.286;8.484;2022-12-10T01:42:04;92743.16;;;-2.73;100.00
39739;BME280;25422;48.286;8.484;2022-12-10T01:46:58;92730.28;;;-2.82;100.00
39739;BME280;25422;48.286;8.484;2022-12-10T01:49:31;92738.91;;;-2.83;100.00
39739;BME280;25422;48.286;8.484;2022-12-10T01:51:58;92738.28;;;-2.76;100.00
39739;BME280;25422;48.286;8.484;2022-12-10T01:54:38;92736.69;;;-2.77;100.00
39739;BME280;25422;48.286;8.484;2022-12-10T01:57:11;92733.91;;;-2.85;100.00
39739;BME280;25422;48.286;8.484;2022-12-10T01:59:38;92753.19;;;-2.81;100.00
39739;BME280;25422;48.286;8.484;2022-12-10T02:02:12;92763.50;;;-2.71;100.00
39739;BME280;25422;48.286;8.484;2022-12-10T02:13:57;92765.88;;;-2.79;100.00
39739;BME280;25422;48.286;8.484;2022-12-10T02:16:15;92767.94;;;-2.73;100.00
39739;BME280;25422;48.286;8.484;2022-12-10T02:18:48;92764.56;;;-2.74;100.00
39739;BME280;25422;48.286;8.484;2022-12-10T02:21:30;92758.94;;;-2.67;100.00
39739;BME280;25422;48.286;8.484;2022-12-10T02:24:01;92757.81;;;-2.75;100.00
39739;BME280;25422;48.286;8.484;2022-12-10T02:26:43;92756.31;;;-2.77;100.00
39739;BME280;25422;48.286;8.484;2022-12-10T02:29:39;92758.09;;;-2.78;100.00
39739;BME280;25422;48.286;8.484;2022-12-10T02:32:19;92746.69;;;-2.85;100.00
39739;BME280;25422;48.286;8.484;2022-12-10T02:34:57;92741.16;;;-2.69;100.00
39739;BME280;25422;48.286;8.484;2022-12-10T02:39:57;92748.97;;;-2.71;100.00
39739;BME280;25422;48.286;8.484;2022-12-10T02:42:26;92754.78;;;-2.68;100.00
39739;BME280;25422;48.286;8.484;2022-12-10T02:44:55;92754.59;;;-2.77;100.00
39739;BME280;25422;48.286;8.484;2022-12-10T02:47:22;92759.72;;;-2.77;100.00
39739;BME280;25422;48.286;8.484;2022-12-10T02:49:50;92754.81;;;-2.80;100.00
39739;BME280;25422;48.286;8.484;2022-12-10T02:52:18;92747.31;;;-2.72;100.00
39739;BME280;25422;48.286;8.484;2022-12-10T02:54:49;92754.03;;;-2.80;100.00
39739;BME280;25422;48.286;8.484;2022-12-10T03:06:03;92748.91;;;-2.80;100.00
39739;BME280;25422;48.286;8.484;2022-12-10T03:11:11;92751.97;;;-2.65;100.00
39739;BME280;25422;48.286;8.484;2022-12-10T03:14:25;92754.84;;;-2.59;100.00
39739;BME280;25422;48.286;8.484;2022-12-10T03:16:38;92760.97;;;-2.71;100.00
39739;BME280;25422;48.286;8.484;2022-12-10T03:19:09;92755.19;;;-2.63;100.00
39739;BME280;25422;48.286;8.484;2022-12-10T03:21:36;92756.16;;;-2.64;100.00
39739;BME280;25422;48.286;8.484;2022-12-10T03:24:07;92761.50;;;-2.67;100.00
39739;BME280;25422;48.286;8.484;2022-12-10T03:26:33;92763.38;;;-2.69;100.00
39739;BME280;25422;48.286;8.484;2022-12-10T03:29:05;92759.38;;;-2.62;100.00
39739;BME280;25422;48.286;8.484;2022-12-10T03:31:33;92753.06;;;-2.58;100.00
39739;BME280;25422;48.286;8.484;2022-12-10T03:33:59;92758.50;;;-2.51;100.00
39739;BME280;25422;48.286;8.484;2022-12-10T03:36:26;92754.31;;;-2.52;100.00
39739;BME280;25422;48.286;8.484;2022-12-10T03:38:53;92758.91;;;-2.56;100.00
39739;BME280;25422;48.286;8.484;2022-12-10T03:41:18;92754.44;;;-2.54;100.00
39739;BME280;25422;48.286;8.484;2022-12-10T03:43:55;92754.97;;;-2.60;100.00
39739;BME280;25422;48.286;8.484;2022-12-10T03:46:23;92757.66;;;-2.62;100.00
39739;BME280;25422;48.286;8.484;2022-12-10T03:48:49;92756.03;;;-2.63;100.00
39739;BME280;25422;48.286;8.484;2022-12-10T03:51:14;92753.59;;;-2.64;100.00
39739;BME280;25422;48.286;8.484;2022-12-10T03:53:40;92765.06;;;-2.59;100.00
39739;BME280;25422;48.286;8.484;2022-12-10T03:56:06;92762.78;;;-2.62;100.00
39739;BME280;25422;48.286;8.484;2022-12-10T03:58:31;92765.69;;;-2.66;100.00
39739;BME280;25422;48.286;8.484;2022-12-10T04:00:56;92759.78;;;-2.67;100.00
39739;BME280;25422;48.286;8.484;2022-12-10T04:03:22;92754.00;;;-2.59;100.00
39739;BME280;25422;48.286;8.484;2022-12-10T04:05:48;92758.63;;;-2.53;100.00
39739;BME280;25422;48.286;8.484;2022-12-10T04:08:13;92752.41;;;-2.60;100.00
39739;BME280;25422;48.286;8.484;2022-12-10T04:10:38;92761.13;;;-2.63;100.00
39739;BME280;25422;48.286;8.484;2022-12-10T04:13:04;92758.44;;;-2.61;100.00
39739;BME280;25422;48.286;8.484;2022-12-10T04:15:48;92764.38;;;-2.61;100.00
39739;BME280;25422;48.286;8.484;2022-12-10T04:18:32;92761.19;;;-2.53;100.00
39739;BME280;25422;48.286;8.484;2022-12-10T04:20:57;92761.69;;;-2.59;100.00
39739;BME280;25422;48.286;8.484;2022-12-10T04:23:41;92757.88;;;-2.65;100.00
39739;BME280;25422;48.286;8.484;2022-12-10T04:26:25;92760.81;;;-2.48;100.00
39739;BME280;25422;48.286;8.484;2022-12-10T04:29:09;92759.13;;;-2.59;100.00
39739;BME280;25422;48.286;8.484;2022-12-10T04:31:35;92764.69;;;-2.54;100.00
39739;BME280;25422;48.286;8.484;2022-12-10T04:34:00;92759.69;;;-2.56;100.00
39739;BME280;25422;48.286;8.484;2022-12-10T04:36:26;92758.31;;;-2.60;100.00
39739;BME280;25422;48.286;8.484;2022-12-10T04:38:51;92756.88;;;-2.52;100.00
39739;BME280;25422;48.286;8.484;2022-12-10T04:41:16;92756.06;;;-2.53;100.00
39739;BME280;25422;48.286;8.484;2022-12-10T04:43:42;92758.81;;;-2.45;100.00
39739;BME280;25422;48.286;8.484;2022-12-10T04:46:08;92762.66;;;-2.60;100.00
39739;BME280;25422;48.286;8.484;2022-12-10T04:48:34;92752.94;;;-2.57;100.00
39739;BME280;25422;48.286;8.484;2022-12-10T04:50:59;92754.97;;;-2.60;100.00
39739;BME280;25422;48.286;8.484;2022-12-10T04:53:25;92753.34;;;-2.61;100.00
39739;BME280;25422;48.286;8.484;2022-12-10T04:55:50;92748.34;;;-2.63;100.00
39739;BME280;25422;48.286;8.484;2022-12-10T04:58:15;92749.75;;;-2.70;100.00
39739;BME280;25422;48.286;8.484;2022-12-10T05:00:41;92736.84;;;-2.68;100.00
39739;BME280;25422;48.286;8.484;2022-12-10T05:03:06;92747.09;;;-2.68;100.00
39739;BME280;25422;48.286;8.484;2022-12-10T05:05:33;92749.88;;;-2.72;100.00
39739;BME280;25422;48.286;8.484;2022-12-10T05:07:59;92752.41;;;-2.60;100.00
39739;BME280;25422;48.286;8.484;2022-12-10T05:10:24;92746.84;;;-2.65;100.00
39739;BME280;25422;48.286;8.484;2022-12-10T05:12:51;92744.94;;;-2.63;100.00
39739;BME280;25422;48.286;8.484;2022-12-10T05:15:16;92752.44;;;-2.72;100.00
39739;BME280;25422;48.286;8.484;2022-12-10T05:17:42;92748.81;;;-2.69;100.00
39739;BME280;25422;48.286;8.484;2022-12-10T05:20:07;92751.69;;;-2.62;100.00
39739;BME280;25422;48.286;8.484;2022-12-10T05:22:33;92754.66;;;-2.67;100.00
39739;BME280;25422;48.286;8.484;2022-12-10T05:25:17;92758.94;;;-2.67;100.00
39739;BME280;25422;48.286;8.484;2022-12-10T05:27:42;92764.06;;;-2.67;100.00
39739;BME280;25422;48.286;8.484;2022-12-10T05:30:08;92771.56;;;-2.55;100.00
39739;BME280;25422;48.286;8.484;2022-12-10T05:32:35;92762.47;;;-2.68;100.00
39739;BME280;25422;48.286;8.484;2022-12-10T05:35:00;92759.19;;;-2.71;100.00
39739;BME280;25422;48.286;8.484;2022-12-10T05:37:27;92759.78;;;-2.67;100.00
39739;BME280;25422;48.286;8.484;2022-12-10T05:39:52;92762.88;;;-2.63;100.00
39739;BME280;25422;48.286;8.484;2022-12-10T05:42:17;92769.44;;;-2.71;100.00
39739;BME280;25422;48.286;8.484;2022-12-10T05:44:43;92774.31;;;-2.67;100.00
39739;BME280;25422;48.286;8.484;2022-12-10T05:47:08;92778.94;;;-2.61;100.00
39739;BME280;25422;48.286;8.484;2022-12-10T05:49:34;92773.50;;;-2.68;100.00
39739;BME280;25422;48.286;8.484;2022-12-10T05:51:59;92775.94;;;-2.66;100.00
39739;BME280;25422;48.286;8.484;2022-12-10T05:54:24;92774.31;;;-2.67;100.00
39739;BME280;25422;48.286;8.484;2022-12-10T05:56:50;92772.69;;;-2.68;100.00
39739;BME280;25422;48.286;8.484;2022-12-10T05:59:15;92762.88;;;-2.63;100.00
39739;BME280;25422;48.286;8.484;2022-12-10T06:01:41;92757.09;;;-2.65;100.00
39739;BME280;25422;48.286;8.484;2022-12-10T06:04:07;92772.06;;;-2.61;100.00
39739;BME280;25422;48.286;8.484;2022-12-10T06:06:35;92768.81;;;-2.63;100.00
39739;BME280;25422;48.286;8.484;2022-12-10T06:09:01;92781.38;;;-2.60;100.00
39739;BME280;25422;48.286;8.484;2022-12-10T06:11:27;92777.56;;;-2.65;100.00
39739;BME280;25422;48.286;8.484;2022-12-10T06:13:54;92787.81;;;-2.65;100.00
39739;BME280;25422;48.286;8.484;2022-12-10T06:16:20;92790.72;;;-2.49;100.00
39739;BME280;25422;48.286;8.484;2022-12-10T06:18:45;92794.94;;;-2.48;100.00
39739;BME280;25422;48.286;8.484;2022-12-10T06:21:13;92806.97;;;-2.60;100.00
39739;BME280;25422;48.286;8.484;2022-12-10T06:23:40;92807.91;;;-2.61;100.00
39739;BME280;25422;48.286;8.484;2022-12-10T06:26:18;92810.09;;;-2.56;100.00
39739;BME280;25422;48.286;8.484;2022-12-10T06:28:45;92809.16;;;-2.55;100.00
39739;BME280;25422;48.286;8.484;2022-12-10T06:31:11;92812.03;;;-2.48;100.00
39739;BME280;25422;48.286;8.484;2022-12-10T06:33:36;92804.72;;;-2.53;100.00
39739;BME280;25422;48.286;8.484;2022-12-10T06:36:06;92803.41;;;-2.47;100.00
39739;BME280;25422;48.286;8.484;2022-12-10T06:38:33;92806.22;;;-2.50;100.00
39739;BME280;25422;48.286;8.484;2022-12-10T06:40:58;92808.22;;;-2.54;100.00
39739;BME280;25422;48.286;8.484;2022-12-10T06:43:23;92797.50;;;-2.48;100.00
39739;BME280;25422;48.286;8.484;2022-12-10T06:45:49;92806.81;;;-2.47;100.00
39739;BME280;25422;48.286;8.484;2022-12-10T06:48:14;92807.72;;;-2.48;100.00
39739;BME280;25422;48.286;8.484;2022-12-10T06:50:40;92815.91;;;-2.54;100.00
39739;BME280;25422;48.286;8.484;2022-12-10T06:53:06;92813.03;;;-2.61;100.00
39739;BME280;25422;48.286;8.484;2022-12-10T06:55:32;92808.97;;;-2.63;100.00
39739;BME280;25422;48.286;8.484;2022-12-10T06:57:57;92823.53;;;-2.64;100.00
39739;BME280;25422;48.286;8.484;2022-12-10T07:00:23;92821.22;;;-2.67;100.00
39739;BME280;25422;48.286;8.484;2022-12-10T07:02:49;92828.06;;;-2.67;100.00
39739;BME280;25422;48.286;8.484;2022-12-10T07:05:14;92825.63;;;-2.69;100.00
39739;BME280;25422;48.286;8.484;2022-12-10T07:07:40;92831.69;;;-2.70;100.00
39739;BME280;25422;48.286;8.484;2022-12-10T07:10:06;92826.56;;;-2.70;100.00
39739;BME280;25422;48.286;8.484;2022-12-10T07:12:32;92828.31;;;-2.71;100.00
39739;BME280;25422;48.286;8.484;2022-12-10T07:14:57;92828.44;;;-2.72;100.00
39739;BME280;25422;48.286;8.484;2022-12-10T07:17:23;92837.88;;;-2.73;100.00
39739;BME280;25422;48.286;8.484;2022-12-10T07:19:49;92838.69;;;-2.72;100.00
39739;BME280;25422;48.286;8.484;2022-12-10T07:22:14;92841.38;;;-2.74;100.00
39739;BME280;25422;48.286;8.484;2022-12-10T07:24:40;92844.75;;;-2.73;100.00
39739;BME280;25422;48.286;8.484;2022-12-10T07:27:06;92844.59;;;-2.72;100.00
39739;BME280;25422;48.286;8.484;2022-12-10T07:29:31;92842.03;;;-2.72;100.00
39739;BME280;25422;48.286;8.484;2022-12-10T07:31:57;92836.81;;;-2.70;100.00
39739;BME280;25422;48.286;8.484;2022-12-10T07:34:22;92838.56;;;-2.71;100.00
39739;BME280;25422;48.286;8.484;2022-12-10T07:36:48;92840.06;;;-2.68;100.00
39739;BME280;25422;48.286;8.484;2022-12-10T07:39:13;92849.81;;;-2.62;100.00
39739;BME280;25422;48.286;8.484;2022-12-10T07:41:47;92848.75;;;-2.59;100.00
39739;BME280;25422;48.286;8.484;2022-12-10T07:44:15;92852.81;;;-2.57;100.00
39739;BME280;25422;48.286;8.484;2022-12-10T07:46:41;92857.94;;;-2.57;100.00
39739;BME280;25422;48.286;8.484;2022-12-10T07:49:06;92857.13;;;-2.57;100.00
39739;BME280;25422;48.286;8.484;2022-12-10T07:51:35;92852.00;;;-2.57;100.00
39739;BME280;25422;48.286;8.484;2022-12-10T07:54:01;92856.41;;;-2.48;100.00
39739;BME280;25422;48.286;8.484;2022-12-10T07:56:27;92855.94;;;-2.53;100.00
39739;BME280;25422;48.286;8.484;2022-12-10T07:58:52;92848.38;;;-2.55;100.00
39739;BME280;25422;48.286;8.484;2022-12-10T08:01:24;92856.63;;;-2.51;100.00
39739;BME280;25422;48.286;8.484;2022-12-10T08:03:51;92851.63;;;-2.52;100.00
39739;BME280;25422;48.286;8.484;2022-12-10T08:06:19;92856.13;;;-2.45;100.00
39739;BME280;25422;48.286;8.484;2022-12-10T08:08:45;92863.50;;;-2.51;100.00
39739;BME280;25422;48.286;8.484;2022-12-10T08:11:12;92867.25;;;-2.56;100.00
39739;BME280;25422;48.286;8.484;2022-12-10T08:13:38;92874.34;;;-2.59;100.00
39739;BME280;25422;48.286;8.484;2022-12-10T08:16:13;92872.03;;;-2.62;100.00
39739;BME280;25422;48.286;8.484;2022-12-10T08:18:39;92872.97;;;-2.63;100.00
39739;BME280;25422;48.286;8.484;2022-12-10T08:21:10;92881.09;;;-2.58;100.00
39739;BME280;25422;48.286;8.484;2022-12-10T08:23:36;92869.13;;;-2.58;100.00
39739;BME280;25422;48.286;8.484;2022-12-10T08:26:07;92873.06;;;-2.53;100.00
39739;BME280;25422;48.286;8.484;2022-12-10T08:28:34;92884.25;;;-2.55;100.00
39739;BME280;25422;48.286;8.484;2022-12-10T08:30:59;92882.03;;;-2.59;100.00
39739;BME280;25422;48.286;8.484;2022-12-10T08:33:25;92891.00;;;-2.53;100.00
39739;BME280;25422;48.286;8.484;2022-12-10T08:35:50;92900.66;;;-2.57;100.00
39739;BME280;25422;48.286;8.484;2022-12-10T08:38:16;92906.16;;;-2.62;100.00
39739;BME280;25422;48.286;8.484;2022-12-10T08:40:42;92899.97;;;-2.59;100.00
39739;BME280;25422;48.286;8.484;2022-12-10T08:43:07;92908.59;;;-2.60;100.00
39739;BME280;25422;48.286;8.484;2022-12-10T08:45:34;92908.09;;;-2.54;100.00
39739;BME280;25422;48.286;8.484;2022-12-10T08:48:00;92908.91;;;-2.53;100.00
39739;BME280;25422;48.286;8.484;2022-12-10T08:50:26;92918.06;;;-2.40;100.00
39739;BME280;25422;48.286;8.484;2022-12-10T08:52:51;92918.00;;;-2.28;100.00
39739;BME280;25422;48.286;8.484;2022-12-10T08:55:17;92921.47;;;-2.18;100.00
39739;BME280;25422;48.286;8.484;2022-12-10T08:57:42;92917.00;;;-2.16;100.00
39739;BME280;25422;48.286;8.484;2022-12-10T09:00:08;92919.75;;;-2.08;100.00
39739;BME280;25422;48.286;8.484;2022-12-10T09:02:34;92921.91;;;-2.13;100.00
39739;BME280;25422;48.286;8.484;2022-12-10T09:04:59;92934.06;;;-2.05;100.00
39739;BME280;25422;48.286;8.484;2022-12-10T09:07:26;92937.19;;;-2.23;100.00
39739;BME280;25422;48.286;8.484;2022-12-10T09:09:52;92931.44;;;-2.15;100.00
39739;BME280;25422;48.286;8.484;2022-12-10T09:12:17;92928.75;;;-2.13;100.00
39739;BME280;25422;48.286;8.484;2022-12-10T09:14:43;92933.06;;;-1.93;100.00
39739;BME280;25422;48.286;8.484;2022-12-10T09:17:08;92935.09;;;-1.96;100.00
39739;BME280;25422;48.286;8.484;2022-12-10T09:19:34;92930.59;;;-2.04;100.00
39739;BME280;25422;48.286;8.484;2022-12-10T09:21:59;92933.59;;;-1.99;100.00
39739;BME280;25422;48.286;8.484;2022-12-10T09:24:25;92937.47;;;-1.62;100.00
39739;BME280;25422;48.286;8.484;2022-12-10T09:26:51;92934.03;;;-1.42;100.00
39739;BME280;25422;48.286;8.484;2022-12-10T09:29:16;92932.22;;;-1.30;100.00
39739;BME280;25422;48.286;8.484;2022-12-10T09:31:42;92943.09;;;-1.07;100.00
39739;BME280;25422;48.286;8.484;2022-12-10T09:34:08;92939.69;;;-1.17;100.00
39739;BME280;25422;48.286;8.484;2022-12-10T09:36:33;92944.13;;;-1.19;100.00
39739;BME280;25422;48.286;8.484;2022-12-10T09:38:59;92940.41;;;-1.05;100.00
39739;BME280;25422;48.286;8.484;2022-12-10T09:44:05;92945.84;;;-0.98;100.00
39739;BME280;25422;48.286;8.484;2022-12-10T09:46:56;92932.44;;;-1.02;100.00
39739;BME280;25422;48.286;8.484;2022-12-10T09:52:03;92947.84;;;-1.02;100.00
39739;BME280;25422;48.286;8.484;2022-12-10T09:54:33;92948.06;;;-1.15;100.00
39739;BME280;25422;48.286;8.484;2022-12-10T09:57:04;92965.22;;;-1.15;100.00
39739;BME280;25422;48.286;8.484;2022-12-10T09:59:36;92954.56;;;-1.11;100.00
39739;BME280;25422;48.286;8.484;2022-12-10T10:02:22;92943.91;;;-1.06;100.00
39739;BME280;25422;48.286;8.484;2022-12-10T10:04:50;92953.75;;;-1.11;100.00
39739;BME280;25422;48.286;8.484;2022-12-10T10:07:25;92949.50;;;-1.22;100.00
39739;BME280;25422;48.286;8.484;2022-12-10T10:09:56;92953.56;;;-1.20;100.00
39739;BME280;25422;48.286;8.484;2022-12-10T10:12:23;92963.91;;;-1.10;100.00
39739;BME280;25422;48.286;8.484;2022-12-10T10:14:48;92947.13;;;-1.14;100.00
39739;BME280;25422;48.286;8.484;2022-12-10T10:17:29;92959.16;;;-1.05;100.00
39739;BME280;25422;48.286;8.484;2022-12-10T10:19:57;92955.28;;;-0.99;100.00
39739;BME280;25422;48.286;8.484;2022-12-10T10:22:22;92961.84;;;-1.16;100.00
39739;BME280;25422;48.286;8.484;2022-12-10T10:24:48;92972.91;;;-1.15;100.00
39739;BME280;25422;48.286;8.484;2022-12-10T10:27:20;92963.00;;;-1.30;100.00
39739;BME280;25422;48.286;8.484;2022-12-10T10:29:48;92956.72;;;-1.06;100.00
39739;BME280;25422;48.286;8.484;2022-12-10T10:32:19;92958.09;;;-1.02;100.00
39739;BME280;25422;48.286;8.484;2022-12-10T10:34:46;92960.59;;;-0.91;100.00
39739;BME280;25422;48.286;8.484;2022-12-10T10:37:26;92949.50;;;-0.81;100.00
39739;BME280;25422;48.286;8.484;2022-12-10T10:39:54;92954.91;;;-0.94;100.00
39739;BME280;25422;48.286;8.484;2022-12-10T10:42:41;92951.44;;;-0.74;100.00
39739;BME280;25422;48.286;8.484;2022-12-10T10:56:14;92955.91;;;-0.66;100.00
39739;BME280;25422;48.286;8.484;2022-12-10T11:01:24;92959.56;;;-0.59;100.00
39739;BME280;25422;48.286;8.484;2022-12-10T11:03:55;92963.28;;;-0.92;100.00
39739;BME280;25422;48.286;8.484;2022-12-10T11:06:22;92960.31;;;-0.88;100.00
39739;BME280;25422;48.286;8.484;2022-12-10T11:08:51;92958.03;;;-0.91;100.00
39739;BME280;25422;48.286;8.484;2022-12-10T11:11:21;92959.06;;;-1.03;100.00
39739;BME280;25422;48.286;8.484;2022-12-10T11:13:48;92966.50;;;-1.00;100.00
39739;BME280;25422;48.286;8.484;2022-12-10T11:16:24;92956.25;;;-0.90;100.00
39739;BME280;25422;48.286;8.484;2022-12-10T11:19:01;92964.75;;;-0.90;100.00
39739;BME280;25422;48.286;8.484;2022-12-10T11:21:32;92969.88;;;-1.30;100.00
39739;BME280;25422;48.286;8.484;2022-12-10T11:23:59;92975.88;;;-1.20;100.00
39739;BME280;25422;48.286;8.484;2022-12-10T11:34:55;92989.25;;;-1.47;100.00
39739;BME280;25422;48.286;8.484;2022-12-10T11:37:36;92983.53;;;-1.51;100.00
39739;BME280;25422;48.286;8.484;2022-12-10T11:49:01;92980.53;;;-1.56;100.00
39739;BME280;25422;48.286;8.484;2022-12-10T11:52:06;92980.59;;;-1.89;100.00
39739;BME280;25422;48.286;8.484;2022-12-10T12:00:16;92994.78;;;-2.38;100.00
39739;BME280;25422;48.286;8.484;2022-12-10T12:11:23;93001.28;;;-2.34;100.00
39739;BME280;25422;48.286;8.484;2022-12-10T12:14:12;93011.91;;;-2.39;100.00
39739;BME280;25422;48.286;8.484;2022-12-10T12:17:08;93007.66;;;-2.28;100.00
39739;BME280;25422;48.286;8.484;2022-12-10T12:19:39;93014.44;;;-2.27;100.00
39739;BME280;25422;48.286;8.484;2022-12-10T12:22:26;93008.13;;;-2.23;100.00
39739;BME280;25422;48.286;8.484;2022-12-10T12:24:59;93017.66;;;-2.25;100.00
39739;BME280;25422;48.286;8.484;2022-12-10T12:27:36;93023.09;;;-2.07;100.00
39739;BME280;25422;48.286;8.484;2022-12-10T12:30:14;93024.06;;;-1.87;100.00
39739;BME280;25422;48.286;8.484;2022-12-10T12:33:10;93029.59;;;-1.71;100.00
39739;BME280;25422;48.286;8.484;2022-12-10T12:35:48;93032.84;;;-1.68;100.00
39739;BME280;25422;48.286;8.484;2022-12-10T12:38:31;93026.16;;;-1.60;100.00
39739;BME280;25422;48.286;8.484;2022-12-10T12:41:05;93019.41;;;-1.61;100.00
39739;BME280;25422;48.286;8.484;2022-12-10T12:46:02;93030.13;;;-1.67;100.00
39739;BME280;25422;48.286;8.484;2022-12-10T12:48:48;93029.72;;;-1.72;100.00
39739;BME280;25422;48.286;8.484;2022-12-10T12:51:33;93031.22;;;-1.70;100.00
39739;BME280;25422;48.286;8.484;2022-12-10T12:54:00;93033.66;;;-1.68;100.00
39739;BME280;25422;48.286;8.484;2022-12-10T12:59:39;93035.00;;;-1.85;100.00
39739;BME280;25422;48.286;8.484;2022-12-10T13:05:18;93040.59;;;-1.80;100.00
39739;BME280;25422;48.286;8.484;2022-12-10T13:10:56;93038.31;;;-1.94;100.00
39739;BME280;25422;48.286;8.484;2022-12-10T13:13:28;93042.97;;;-1.88;100.00
39739;BME280;25422;48.286;8.484;2022-12-10T13:15:54;93039.47;;;-1.87;100.00
39739;BME280;25422;48.286;8.484;2022-12-10T13:18:34;93041.97;;;-1.76;100.00
39739;BME280;25422;48.286;8.484;2022-12-10T13:21:27;93051.97;;;-1.73;100.00
39739;BME280;25422;48.286;8.484;2022-12-10T13:24:11;93048.94;;;-1.78;100.00
39739;BME280;25422;48.286;8.484;2022-12-10T13:26:42;93064.44;;;-1.68;100.00
39739;BME280;25422;48.286;8.484;2022-12-10T13:29:27;93057.34;;;-1.76;100.00
39739;BME280;25422;48.286;8.484;2022-12-10T13:32:02;93064.66;;;-1.71;100.00
39739;BME280;25422;48.286;8.484;2022-12-10T13:34:34;93071.59;;;-1.83;100.00
39739;BME280;25422;48.286;8.484;2022-12-10T13:37:14;93080.69;;;-1.58;100.00
39739;BME280;25422;48.286;8.484;2022-12-10T13:40:02;93086.97;;;-1.50;100.00
39739;BME280;25422;48.286;8.484;2022-12-10T13:42:31;93086.97;;;-1.50;100.00
39739;BME280;25422;48.286;8.484;2022-12-10T13:47:53;93101.53;;;-1.51;100.00
39739;BME280;25422;48.286;8.484;2022-12-10T13:56:01;93108.56;;;-1.97;100.00
39739;BME280;25422;48.286;8.484;2022-12-10T13:58:51;93115.22;;;-1.94;100.00
39739;BME280;25422;48.286;8.484;2022-12-10T14:06:34;93115.81;;;-2.02;100.00
39739;BME280;25422;48.286;8.484;2022-12-10T14:09:21;93119.66;;;-1.96;100.00
39739;BME280;25422;48.286;8.484;2022-12-10T14:12:03;93119.09;;;-2.11;100.00
39739;BME280;25422;48.286;8.484;2022-12-10T14:14:40;93114.31;;;-2.16;100.00
39739;BME280;25422;48.286;8.484;2022-12-10T14:17:23;93124.69;;;-2.06;100.00
39739;BME280;25422;48.286;8.484;2022-12-10T14:19:52;93123.31;;;-2.22;100.00
39739;BME280;25422;48.286;8.484;2022-12-10T14:24:50;93130.19;;;-2.22;100.00
39739;BME280;25422;48.286;8.484;2022-12-10T14:27:18;93131.69;;;-2.19;100.00
39739;BME280;25422;48.286;8.484;2022-12-10T14:29:49;93138.81;;;-2.34;100.00
39739;BME280;25422;48.286;8.484;2022-12-10T14:32:20;93143.00;;;-2.45;100.00
39739;BME280;25422;48.286;8.484;2022-12-10T14:34:50;93145.56;;;-2.45;100.00
39739;BME280;25422;48.286;8.484;2022-12-10T14:37:19;93146.13;;;-2.52;100.00
39739;BME280;25422;48.286;8.484;2022-12-10T14:39:48;93147.78;;;-2.63;100.00
39739;BME280;25422;48.286;8.484;2022-12-10T14:42:16;93143.22;;;-2.71;100.00
39739;BME280;25422;48.286;8.484;2022-12-10T14:44:42;93145.09;;;-2.73;100.00
39739;BME280;25422;48.286;8.484;2022-12-10T14:47:21;93154.63;;;-2.86;100.00